Time;durP1;ratioP1;P1;durP2;ratioP2;P2;SDS_P1;SDS_P2;PMS_P1;PMS_P2;Temp;Humidity;BMP_temperature;BMP_pressure;BME280_temperature;BME280_humidity;BME280_pressure;Samples;Min_cycle;Max_cycle;Signal;HPM_P1;HPM_P2
2023/10/09 00:01:13;;;;;;;0.73;0.50;;;;;;;;;;5091816;28;21382;-60
2023/10/09 00:03:43;;;;;;;1.73;0.80;;;;;;;;;;5092030;28;20544;-59
2023/10/09 00:06:13;;;;;;;2.63;1.17;;;;;;;;;;5091562;28;20077;-59
2023/10/09 00:08:44;;;;;;;1.17;1.00;;;;;;;;;;5088443;28;20166;-59
2023/10/09 00:11:17;;;;;;;1.10;0.57;;;;;;;;;;5087190;28;20040;-60
2023/10/09 00:13:52;;;;;;;2.83;1.20;;;;;;;;;;5086954;28;20109;-59
2023/10/09 00:16:47;;;;;;;1.80;0.77;;;;;;;;;;5087071;28;20475;-59
2023/10/09 00:19:16;;;;;;;2.17;1.07;;;;;;;;;;5091416;28;20493;-59
2023/10/09 00:21:44;;;;;;;2.17;1.07;;;;;;;;;;5091982;28;20028;-59
2023/10/09 00:24:14;;;;;;;1.83;0.93;;;;;;;;;;5091484;28;20089;-60
2023/10/09 00:26:45;;;;;;;1.10;0.80;;;;;;;;;;5092153;28;20024;-59
2023/10/09 00:29:27;;;;;;;1.30;0.70;;;;;;;;;;5091866;28;20020;-59
2023/10/09 00:32:13;;;;;;;1.87;0.80;;;;;;;;;;5089996;28;20026;-59
2023/10/09 00:34:42;;;;;;;1.10;0.73;;;;;;;;;;5091272;28;20024;-59
2023/10/09 00:37:22;;;;;;;1.43;0.93;;;;;;;;;;5090281;28;20024;-59
2023/10/09 00:39:56;;;;;;;1.70;0.90;;;;;;;;;;5091562;28;20043;-60
2023/10/09 00:42:35;;;;;;;3.38;1.20;;;;;;;;;;5095840;28;20061;-60
2023/10/09 00:45:04;;;;;;;2.50;1.00;;;;;;;;;;5095535;28;20048;-60
2023/10/09 00:47:35;;;;;;;2.53;1.13;;;;;;;;;;5095303;28;20089;-60
2023/10/09 00:53:18;;;;;;;0.47;0.40;;;;;;;;;;5093749;28;20025;-61
2023/10/09 00:55:38;;;;;;;1.60;0.67;;;;;;;;;;5088258;28;20032;-60
2023/10/09 00:58:12;;;;;;;2.80;1.23;;;;;;;;;;5090297;28;20390;-61
2023/10/09 01:00:46;;;;;;;7.28;1.40;;;;;;;;;;5090664;28;20077;-60
2023/10/09 01:06:33;;;;;;;1.90;0.83;;;;;;;;;;5095425;28;20035;-61
2023/10/09 01:08:35;;;;;;;0.63;0.47;;;;;;;;;;5087683;28;20036;-60
2023/10/09 01:11:18;;;;;;;0.40;0.30;;;;;;;;;;5094691;28;20044;-61
2023/10/09 01:16:18;;;;;;;11.47;0.93;;;;;;;;;;5090711;28;20036;-60
2023/10/09 01:31:37;;;;;;;0.60;0.47;;;;;;;;;;5103377;27;20140;-59
2023/10/09 01:34:24;;;;;;;0.60;0.30;;;;;;;;;;5104556;27;20411;-59
2023/10/09 01:36:54;;;;;;;2.07;0.50;;;;;;;;;;5104759;28;20024;-59
2023/10/09 01:39:25;;;;;;;1.80;0.67;;;;;;;;;;5103604;28;20115;-58
2023/10/09 01:41:58;;;;;;;3.90;0.40;;;;;;;;;;5105566;28;20035;-58
2023/10/09 01:44:34;;;;;;;0.30;0.27;;;;;;;;;;5109816;28;20020;-58
2023/10/09 01:47:07;;;;;;;0.03;0.00;;;;;;;;;;5109479;28;20513;-58
2023/10/09 01:49:41;;;;;;;0.30;0.20;;;;;;;;;;5109850;28;20035;-58
2023/10/09 01:52:15;;;;;;;0.87;0.40;;;;;;;;;;5109585;28;20031;-57
2023/10/09 01:54:53;;;;;;;0.20;0.20;;;;;;;;;;5107350;28;20024;-59
2023/10/09 01:57:24;;;;;;;1.47;0.43;;;;;;;;;;5104091;28;20034;-58
2023/10/09 01:59:53;;;;;;;0.10;0.10;;;;;;;;;;5104530;28;20115;-57
2023/10/09 02:02:26;;;;;;;0.43;0.17;;;;;;;;;;5104445;28;20051;-57
2023/10/09 02:07:52;;;;;;;0.20;0.20;;;;;;;;;;5109331;28;20063;-58
2023/10/09 02:10:31;;;;;;;0.33;0.30;;;;;;;;;;5109461;28;20027;-57
2023/10/09 02:13:06;;;;;;;0.50;0.30;;;;;;;;;;5109122;28;20038;-58
2023/10/09 02:21:00;;;;;;;0.33;0.27;;;;;;;;;;5103988;28;20031;-57
2023/10/09 02:24:26;;;;;;;0.20;0.20;;;;;;;;;;5103994;28;20505;-57
2023/10/09 02:31:40;;;;;;;1.07;0.53;;;;;;;;;;5108995;28;20024;-57
2023/10/09 02:34:10;;;;;;;2.17;0.50;;;;;;;;;;5108354;28;20031;-57
2023/10/09 02:36:41;;;;;;;0.77;0.40;;;;;;;;;;5108542;28;20034;-58
2023/10/09 02:39:21;;;;;;;0.73;0.43;;;;;;;;;;5106212;28;20035;-57
2023/10/09 02:41:50;;;;;;;0.27;0.20;;;;;;;;;;5103739;28;20035;-57
2023/10/09 02:44:17;;;;;;;0.20;0.10;;;;;;;;;;5097700;28;20028;-57
2023/10/09 02:46:44;;;;;;;0.47;0.30;;;;;;;;;;5089659;28;20039;-57
2023/10/09 02:49:15;;;;;;;0.53;0.30;;;;;;;;;;5090902;28;20020;-57
2023/10/09 02:51:42;;;;;;;0.77;0.30;;;;;;;;;;5094992;28;20035;-57
2023/10/09 02:54:18;;;;;;;2.70;0.67;;;;;;;;;;5095000;28;20036;-57
2023/10/09 02:56:56;;;;;;;0.40;0.10;;;;;;;;;;5095026;28;20032;-56
2023/10/09 02:59:23;;;;;;;0.20;0.10;;;;;;;;;;5094499;28;20073;-57
2023/10/09 03:01:53;;;;;;;1.10;0.43;;;;;;;;;;5092935;28;20028;-56
2023/10/09 03:04:19;;;;;;;0.73;0.30;;;;;;;;;;5089564;28;20034;-57
2023/10/09 03:06:53;;;;;;;0.27;0.23;;;;;;;;;;5089842;28;20119;-57
2023/10/09 03:09:26;;;;;;;0.40;0.30;;;;;;;;;;5089662;28;20099;-57
2023/10/09 03:11:54;;;;;;;0.50;0.23;;;;;;;;;;5091179;28;20114;-57
2023/10/09 03:14:21;;;;;;;0.33;0.27;;;;;;;;;;5094283;28;20075;-57
2023/10/09 03:16:48;;;;;;;2.67;0.93;;;;;;;;;;5094763;28;20047;-57
2023/10/09 03:19:16;;;;;;;1.07;0.53;;;;;;;;;;5094289;28;20059;-57
2023/10/09 03:21:43;;;;;;;0.50;0.43;;;;;;;;;;5094366;28;20020;-57
2023/10/09 03:24:11;;;;;;;0.57;0.37;;;;;;;;;;5092783;28;20564;-57
2023/10/09 03:26:38;;;;;;;0.77;0.53;;;;;;;;;;5089198;28;20105;-57
2023/10/09 03:29:10;;;;;;;0.57;0.40;;;;;;;;;;5089351;28;20024;-57
2023/10/09 03:31:42;;;;;;;0.23;0.17;;;;;;;;;;5089112;28;20551;-57
2023/10/09 03:34:10;;;;;;;0.60;0.40;;;;;;;;;;5090349;28;20035;-57
2023/10/09 03:36:38;;;;;;;0.83;0.43;;;;;;;;;;5094068;28;20028;-58
2023/10/09 03:39:20;;;;;;;0.50;0.47;;;;;;;;;;5093931;28;20047;-57
2023/10/09 03:41:47;;;;;;;4.13;1.00;;;;;;;;;;5094090;28;20099;-57
2023/10/09 03:44:18;;;;;;;2.77;0.53;;;;;;;;;;5093881;28;20036;-57
2023/10/09 03:46:51;;;;;;;1.20;0.70;;;;;;;;;;5091729;28;20442;-57
2023/10/09 03:49:23;;;;;;;0.50;0.30;;;;;;;;;;5088785;28;20085;-57
2023/10/09 03:51:50;;;;;;;0.63;0.60;;;;;;;;;;5088839;28;20040;-57
2023/10/09 03:54:20;;;;;;;0.87;0.60;;;;;;;;;;5088634;28;20470;-57
2023/10/09 03:56:50;;;;;;;0.93;0.60;;;;;;;;;;5088897;28;20063;-57
2023/10/09 03:59:19;;;;;;;3.60;1.33;;;;;;;;;;5093833;28;20031;-56
2023/10/09 04:01:48;;;;;;;1.07;0.77;;;;;;;;;;5093650;28;20442;-57
2023/10/09 04:04:15;;;;;;;0.87;0.53;;;;;;;;;;5093293;28;20028;-57
2023/10/09 04:06:42;;;;;;;1.57;0.70;;;;;;;;;;5093657;28;20031;-57
2023/10/09 04:11:57;;;;;;;1.60;0.70;;;;;;;;;;5088068;28;20036;-57
2023/10/09 04:14:26;;;;;;;1.60;0.90;;;;;;;;;;5088280;28;20070;-57
2023/10/09 04:17:04;;;;;;;1.03;0.80;;;;;;;;;;5088570;28;20028;-57
2023/10/09 04:19:38;;;;;;;0.67;0.53;;;;;;;;;;5090568;28;20413;-57
2023/10/09 04:22:25;;;;;;;1.08;0.88;;;;;;;;;;5093071;28;20078;-57
2023/10/09 04:24:51;;;;;;;9.07;1.13;;;;;;;;;;5093239;28;20090;-57
2023/10/09 04:27:26;;;;;;;0.83;0.57;;;;;;;;;;5093300;28;20031;-57
2023/10/09 04:29:54;;;;;;;0.40;0.38;;;;;;;;;;5093103;28;20032;-56
2023/10/09 04:32:24;;;;;;;1.13;0.67;;;;;;;;;;5088641;28;20043;-57
2023/10/09 04:37:39;;;;;;;;;;;;;;;;;;5088226;28;20570;-57
2023/10/09 04:40:14;;;;;;;0.70;0.40;;;;;;;;;;5087746;28;19904;-57
2023/10/09 04:42:46;;;;;;;0.90;0.60;;;;;;;;;;5091802;28;20028;-57
2023/10/09 04:47:49;;;;;;;0.80;0.57;;;;;;;;;;5092781;28;20111;-57
2023/10/09 04:52:54;;;;;;;0.93;0.77;;;;;;;;;;5092643;28;20044;-57
2023/10/09 04:55:24;;;;;;;0.63;0.50;;;;;;;;;;5087613;28;20051;-57
2023/10/09 04:58:01;;;;;;;0.80;0.70;;;;;;;;;;5087542;28;20554;-56
2023/10/09 05:03:24;;;;;;;0.60;0.47;;;;;;;;;;5087225;28;20050;-57
2023/10/09 05:08:21;;;;;;;5.63;1.03;;;;;;;;;;5092216;28;20036;-57
2023/10/09 05:16:13;;;;;;;0.93;0.77;;;;;;;;;;5090909;28;20028;-57
2023/10/09 05:18:45;;;;;;;1.47;1.00;;;;;;;;;;5087644;28;20028;-56
2023/10/09 05:29:24;;;;;;;0.40;0.40;;;;;;;;;;5092226;28;20044;-56
2023/10/09 05:34:33;;;;;;;2.70;0.80;;;;;;;;;;5092042;28;20113;-57
2023/10/09 05:37:16;;;;;;;1.67;0.50;;;;;;;;;;5092499;28;20085;-57
2023/10/09 05:39:58;;;;;;;0.17;0.17;;;;;;;;;;5087896;28;20036;-57
2023/10/09 05:42:42;;;;;;;0.30;0.27;;;;;;;;;;5086452;28;20526;-56
2023/10/09 05:58:53;;;;;;;0.73;0.30;;;;;;;;;;5091687;28;20119;-57
2023/10/09 06:08:26;;;;;;;0.30;0.20;;;;;;;;;;5086581;28;20067;-57
2023/10/09 06:11:07;;;;;;;0.50;0.30;;;;;;;;;;5088265;28;20021;-57
2023/10/09 06:13:45;;;;;;;0.57;0.40;;;;;;;;;;5091565;28;20118;-57
2023/10/09 06:24:22;;;;;;;0.87;0.37;;;;;;;;;;5091609;28;20031;-57
2023/10/09 06:32:50;;;;;;;3.58;0.55;;;;;;;;;;5090560;28;20039;-57
2023/10/09 06:34:56;;;;;;;0.77;0.33;;;;;;;;;;5087082;28;20039;-56
2023/10/09 06:42:51;;;;;;;0.47;0.30;;;;;;;;;;5083868;28;20032;-57
2023/10/09 06:45:17;;;;;;;4.80;1.27;;;;;;;;;;5094107;28;20470;-57
2023/10/09 06:47:55;;;;;;;0.27;0.27;;;;;;;;;;5089819;28;20394;-56
2023/10/09 06:55:51;;;;;;;0.10;0.10;;;;;;;;;;5085042;28;20039;-57
2023/10/09 06:58:27;;;;;;;0.83;0.47;;;;;;;;;;5075577;28;20040;-57
2023/10/09 07:04:10;;;;;;;0.45;0.25;;;;;;;;;;5089274;28;20040;-57
2023/10/09 07:14:08;;;;;;;1.00;0.37;;;;;;;;;;5089595;28;20086;-57
2023/10/09 07:16:57;;;;;;;0.53;0.50;;;;;;;;;;5089454;28;20118;-57
2023/10/09 07:22:04;;;;;;;0.17;0.13;;;;;;;;;;5094495;28;20059;-56
2023/10/09 07:24:43;;;;;;;0.43;0.37;;;;;;;;;;5094556;28;20024;-56
2023/10/09 07:27:14;;;;;;;0.47;0.37;;;;;;;;;;5094359;28;20549;-56
2023/10/09 07:29:50;;;;;;;1.30;0.50;;;;;;;;;;5094222;28;20377;-57
2023/10/09 07:32:20;;;;;;;0.90;0.60;;;;;;;;;;5089535;28;20032;-57
2023/10/09 07:34:53;;;;;;;0.20;0.20;;;;;;;;;;5088930;28;20492;-57
2023/10/09 07:37:22;;;;;;;0.53;0.40;;;;;;;;;;5089511;28;20158;-56
2023/10/09 07:39:58;;;;;;;0.17;0.17;;;;;;;;;;5088957;28;20040;-56
2023/10/09 07:50:40;;;;;;;0.77;0.30;;;;;;;;;;5093887;28;20028;-57
2023/10/09 07:53:26;;;;;;;2.13;0.77;;;;;;;;;;5091182;28;20093;-57
2023/10/09 07:56:06;;;;;;;0.70;0.47;;;;;;;;;;5088799;28;20035;-56
2023/10/09 07:58:45;;;;;;;3.83;0.50;;;;;;;;;;5088955;28;20093;-56
2023/10/09 08:01:16;;;;;;;0.83;0.40;;;;;;;;;;5089042;28;20047;-57
2023/10/09 08:03:46;;;;;;;6.93;0.50;;;;;;;;;;5091801;28;20036;-56
2023/10/09 08:17:16;;;;;;;2.73;0.80;;;;;;;;;;5088722;28;20390;-56
2023/10/09 08:20:11;;;;;;;10.63;0.23;;;;;;;;;;5088306;28;20471;-56
2023/10/09 08:22:42;;;;;;;0.00;0.00;;;;;;;;;;5088598;28;20500;-57
2023/10/09 08:25:26;;;;;;;4.57;0.47;;;;;;;;;;5089584;28;20470;-56
2023/10/09 08:28:39;;;;;;;3.87;0.50;;;;;;;;;;5093215;28;20378;-56
2023/10/09 08:30:51;;;;;;;0.13;0.07;;;;;;;;;;5092910;28;20490;-57
2023/10/09 08:36:07;;;;;;;1.03;0.47;;;;;;;;;;5093264;28;20479;-56
2023/10/09 08:38:34;;;;;;;14.90;0.70;;;;;;;;;;5088965;28;20436;-57
2023/10/09 08:41:17;;;;;;;3.13;0.40;;;;;;;;;;5088030;28;20083;-57
2023/10/09 08:43:50;;;;;;;1.20;0.50;;;;;;;;;;5087748;28;20103;-56
2023/10/09 08:46:20;;;;;;;2.90;0.83;;;;;;;;;;5088027;28;20043;-56
2023/10/09 08:48:47;;;;;;;0.63;0.20;;;;;;;;;;5091991;28;20020;-56
2023/10/09 08:51:14;;;;;;;0.23;0.13;;;;;;;;;;5092683;28;20032;-57
2023/10/09 08:53:43;;;;;;;11.17;0.70;;;;;;;;;;5092777;28;20093;-58
2023/10/09 08:56:23;;;;;;;11.60;0.47;;;;;;;;;;5092435;28;20027;-57
2023/10/09 08:58:51;;;;;;;0.77;0.43;;;;;;;;;;5092812;28;20024;-57
2023/10/09 09:01:21;;;;;;;0.10;0.10;;;;;;;;;;5088032;28;20035;-57
2023/10/09 09:03:50;;;;;;;1.00;0.53;;;;;;;;;;5087433;28;20515;-57
2023/10/09 09:06:19;;;;;;;0.60;0.43;;;;;;;;;;5087319;28;20036;-57
2023/10/09 09:08:46;;;;;;;0.93;0.40;;;;;;;;;;5087392;28;20043;-57
2023/10/09 09:11:40;;;;;;;4.33;0.37;;;;;;;;;;5092063;28;20110;-57
2023/10/09 09:14:07;;;;;;;0.30;0.17;;;;;;;;;;5092236;28;20386;-57
2023/10/09 09:16:37;;;;;;;2.10;0.20;;;;;;;;;;5092495;28;20032;-58
2023/10/09 09:21:42;;;;;;;1.30;0.47;;;;;;;;;;5092034;28;20058;-57
2023/10/09 09:29:36;;;;;;;0.87;0.30;;;;;;;;;;5087864;28;20067;-56
2023/10/09 09:32:19;;;;;;;1.03;0.40;;;;;;;;;;5088308;28;20036;-57
2023/10/09 09:34:51;;;;;;;1.13;0.53;;;;;;;;;;5092511;28;20081;-57
2023/10/09 09:37:21;;;;;;;0.37;0.10;;;;;;;;;;5092471;28;20036;-57
2023/10/09 09:39:49;;;;;;;0.43;0.40;;;;;;;;;;5091675;28;20035;-56
2023/10/09 09:42:24;;;;;;;0.30;0.23;;;;;;;;;;5092198;28;20040;-57
2023/10/09 09:44:52;;;;;;;0.30;0.20;;;;;;;;;;5089791;28;20043;-57
2023/10/09 09:47:30;;;;;;;1.37;0.57;;;;;;;;;;5087260;28;20031;-57
2023/10/09 09:50:00;;;;;;;5.53;0.50;;;;;;;;;;5087238;28;20027;-57
2023/10/09 09:52:38;;;;;;;0.67;0.40;;;;;;;;;;5086994;28;20085;-57
2023/10/09 09:55:05;;;;;;;2.33;0.60;;;;;;;;;;5091758;28;20428;-57
2023/10/09 09:57:39;;;;;;;7.37;0.60;;;;;;;;;;5096143;28;20051;-57
2023/10/09 10:00:08;;;;;;;11.07;0.98;;;;;;;;;;5096366;28;20020;-57
2023/10/09 10:02:38;;;;;;;0.73;0.30;;;;;;;;;;5095408;28;20359;-57
2023/10/09 10:05:07;;;;;;;2.23;0.73;;;;;;;;;;5096160;28;20024;-57
2023/10/09 10:07:49;;;;;;;0.90;0.40;;;;;;;;;;5093002;28;20032;-56
2023/10/09 10:10:34;;;;;;;1.00;0.47;;;;;;;;;;5091015;28;20028;-57
2023/10/09 10:13:01;;;;;;;0.57;0.43;;;;;;;;;;5090375;28;20047;-57
2023/10/09 10:15:46;;;;;;;0.40;0.20;;;;;;;;;;5090700;28;20036;-57
2023/10/09 10:18:18;;;;;;;0.55;0.40;;;;;;;;;;5095003;28;20024;-57
2023/10/09 10:21:03;;;;;;;0.33;0.30;;;;;;;;;;5095582;28;20036;-57
2023/10/09 10:23:34;;;;;;;0.77;0.52;;;;;;;;;;5075358;28;20032;-57
2023/10/09 10:26:36;;;;;;;2.57;0.30;;;;;;;;;;5075520;28;20094;-57
2023/10/09 10:29:33;;;;;;;0.40;0.23;;;;;;;;;;5031305;28;20514;-57
2023/10/09 10:32:01;;;;;;;1.27;0.47;;;;;;;;;;5079859;28;20032;-57
2023/10/09 10:34:56;;;;;;;0.70;0.40;;;;;;;;;;5090383;28;20035;-57
2023/10/09 10:37:28;;;;;;;;;;;;;;;;;;5091191;28;20034;-57
2023/10/09 10:40:02;;;;;;;0.77;0.40;;;;;;;;;;5093282;28;19908;-56
2023/10/09 10:42:35;;;;;;;0.67;0.10;;;;;;;;;;5094960;28;20119;-57
2023/10/09 10:45:02;;;;;;;0.40;0.33;;;;;;;;;;5094843;28;20051;-57
2023/10/09 10:47:34;;;;;;;0.10;0.10;;;;;;;;;;5095035;28;20435;-57
2023/10/09 10:50:11;;;;;;;0.63;0.50;;;;;;;;;;5095319;28;20016;-57
2023/10/09 10:52:41;;;;;;;0.20;0.20;;;;;;;;;;5091061;28;20477;-57
2023/10/09 10:55:18;;;;;;;1.30;0.50;;;;;;;;;;5089708;28;20694;-57
2023/10/09 11:01:14;;;;;;;0.23;0.17;;;;;;;;;;5084918;28;20371;-57
2023/10/09 11:03:54;;;;;;;4.33;0.77;;;;;;;;;;5093611;28;20046;-57
2023/10/09 11:06:37;;;;;;;0.20;0.20;;;;;;;;;;5093781;28;20040;-57
2023/10/09 11:09:35;;;;;;;0.50;0.50;;;;;;;;;;5094384;28;20482;-57
2023/10/09 11:12:11;;;;;;;0.33;0.27;;;;;;;;;;5093923;28;20083;-57
2023/10/09 11:15:05;;;;;;;0.80;0.70;;;;;;;;;;5091371;28;20488;-57
2023/10/09 11:17:35;;;;;;;0.20;0.20;;;;;;;;;;5089401;28;20089;-57
2023/10/09 11:20:26;;;;;;;0.40;0.40;;;;;;;;;;5089458;28;20158;-57
2023/10/09 11:25:36;;;;;;;0.60;0.43;;;;;;;;;;5094703;28;20139;-56
2023/10/09 11:28:27;;;;;;;0.30;0.30;;;;;;;;;;5094345;28;20028;-57
2023/10/09 11:30:55;;;;;;;0.13;0.13;;;;;;;;;;5093788;28;20122;-57
2023/10/09 11:33:22;;;;;;;0.60;0.53;;;;;;;;;;5094126;28;20553;-57
2023/10/09 11:36:00;;;;;;;0.47;0.30;;;;;;;;;;5093665;28;20040;-56
2023/10/09 11:38:28;;;;;;;4.87;1.17;;;;;;;;;;5089294;28;20412;-57
2023/10/09 11:43:51;;;;;;;31.70;0.93;;;;;;;;;;5089288;28;20027;-56
2023/10/09 11:46:11;;;;;;;0.30;0.20;;;;;;;;;;5090018;28;20059;-57
2023/10/09 11:49:13;;;;;;;0.20;0.20;;;;;;;;;;5093620;28;20020;-57
2023/10/09 11:51:37;;;;;;;1.63;0.75;;;;;;;;;;5093531;28;20085;-57
2023/10/09 11:54:08;;;;;;;3.50;0.50;;;;;;;;;;5093948;28;20390;-56
2023/10/09 11:56:35;;;;;;;1.90;0.53;;;;;;;;;;5093853;28;20039;-57
2023/10/09 11:59:04;;;;;;;0.47;0.40;;;;;;;;;;5091228;28;20032;-57
2023/10/09 12:01:35;;;;;;;0.20;0.20;;;;;;;;;;5088595;28;20038;-57
2023/10/09 12:04:02;;;;;;;0.30;0.30;;;;;;;;;;5088854;28;20111;-56
2023/10/09 12:06:32;;;;;;;0.30;0.20;;;;;;;;;;5088421;28;20024;-57
2023/10/09 12:08:58;;;;;;;1.00;0.67;;;;;;;;;;5090911;28;20093;-56
2023/10/09 12:11:31;;;;;;;1.43;0.87;;;;;;;;;;5093351;28;20020;-57
2023/10/09 12:14:00;;;;;;;0.33;0.27;;;;;;;;;;5093515;28;20055;-57
2023/10/09 12:16:32;;;;;;;1.03;0.53;;;;;;;;;;5093051;28;20035;-57
2023/10/09 12:18:59;;;;;;;0.30;0.20;;;;;;;;;;5093128;28;20040;-57
2023/10/09 12:21:27;;;;;;;0.73;0.50;;;;;;;;;;5090683;28;20032;-57
2023/10/09 12:23:57;;;;;;;1.90;0.77;;;;;;;;;;5088137;28;20457;-57
2023/10/09 12:26:24;;;;;;;0.83;0.50;;;;;;;;;;5088475;28;20401;-57
2023/10/09 12:28:50;;;;;;;0.57;0.40;;;;;;;;;;5088332;28;20367;-57
2023/10/09 12:31:21;;;;;;;0.97;0.67;;;;;;;;;;5090114;28;20438;-57
2023/10/09 12:33:49;;;;;;;2.30;0.90;;;;;;;;;;5093256;28;20039;-56
2023/10/09 12:36:19;;;;;;;1.10;0.60;;;;;;;;;;5092421;28;20024;-57
2023/10/09 12:38:50;;;;;;;0.87;0.53;;;;;;;;;;5093032;28;20137;-57
2023/10/09 12:41:25;;;;;;;0.63;0.40;;;;;;;;;;5092953;28;20032;-57
2023/10/09 12:43:54;;;;;;;3.03;0.38;;;;;;;;;;5090290;28;20076;-57
2023/10/09 12:46:25;;;;;;;4.50;0.53;;;;;;;;;;5087975;28;20028;-57
2023/10/09 12:48:55;;;;;;;1.90;0.73;;;;;;;;;;5087243;28;20177;-57
2023/10/09 12:51:29;;;;;;;5.57;1.10;;;;;;;;;;5088008;28;20078;-57
2023/10/09 12:54:01;;;;;;;0.32;0.32;;;;;;;;;;5090629;28;20111;-57
2023/10/09 12:56:37;;;;;;;4.10;1.93;;;;;;;;;;5092288;28;20059;-57
2023/10/09 12:59:07;;;;;;;18.13;2.90;;;;;;;;;;5072424;28;20032;-56
2023/10/09 13:01:42;;;;;;;4.67;0.93;;;;;;;;;;5079476;28;20035;-56
2023/10/09 13:04:14;;;;;;;0.73;0.57;;;;;;;;;;5092308;28;20088;-57
2023/10/09 13:06:47;;;;;;;2.60;0.97;;;;;;;;;;5088194;28;20028;-57
2023/10/09 13:09:14;;;;;;;1.00;0.50;;;;;;;;;;5087962;28;20016;-57
2023/10/09 13:11:42;;;;;;;1.40;0.80;;;;;;;;;;5087336;28;20081;-56
2023/10/09 13:14:16;;;;;;;0.87;0.47;;;;;;;;;;5087534;28;20040;-57
2023/10/09 13:16:47;;;;;;;6.10;0.88;;;;;;;;;;5089998;28;20065;-57
2023/10/09 13:19:14;;;;;;;0.47;0.30;;;;;;;;;;5092761;28;20034;-57
2023/10/09 13:21:42;;;;;;;0.77;0.50;;;;;;;;;;5092114;28;20024;-57
2023/10/09 13:24:17;;;;;;;0.63;0.47;;;;;;;;;;5092289;28;20043;-57
2023/10/09 13:26:51;;;;;;;0.50;0.47;;;;;;;;;;5092411;28;20097;-57
2023/10/09 13:29:22;;;;;;;1.03;0.53;;;;;;;;;;5087723;28;20036;-57
2023/10/09 13:31:52;;;;;;;2.47;1.00;;;;;;;;;;5086759;28;20114;-57
2023/10/09 13:34:19;;;;;;;0.63;0.43;;;;;;;;;;5087424;28;20048;-57
2023/10/09 13:36:58;;;;;;;13.03;1.50;;;;;;;;;;5087037;28;20153;-57
2023/10/09 13:39:25;;;;;;;1.10;0.90;;;;;;;;;;5091193;28;20028;-57
2023/10/09 13:41:59;;;;;;;8.47;1.37;;;;;;;;;;5091744;28;20036;-57
2023/10/09 13:44:28;;;;;;;0.90;0.80;;;;;;;;;;5092170;28;20032;-57
2023/10/09 13:46:56;;;;;;;3.57;0.77;;;;;;;;;;5092057;28;20032;-57
2023/10/09 13:49:23;;;;;;;0.37;0.37;;;;;;;;;;5092347;28;20153;-57
2023/10/09 13:51:50;;;;;;;2.40;0.50;;;;;;;;;;5085394;28;20045;-57
2023/10/09 13:54:21;;;;;;;19.50;1.27;;;;;;;;;;5087146;28;20040;-57
2023/10/09 13:56:52;;;;;;;0.77;0.50;;;;;;;;;;5086927;28;20035;-57
2023/10/09 13:59:22;;;;;;;0.53;0.43;;;;;;;;;;5087131;28;20490;-57
2023/10/09 14:01:49;;;;;;;2.07;0.90;;;;;;;;;;5091283;28;20108;-57
2023/10/09 14:04:19;;;;;;;1.27;0.80;;;;;;;;;;5091979;28;20103;-57
2023/10/09 14:06:47;;;;;;;0.87;0.63;;;;;;;;;;5091955;28;20471;-56
2023/10/09 14:09:32;;;;;;;0.57;0.40;;;;;;;;;;5092292;28;20034;-57
2023/10/09 14:12:09;;;;;;;0.88;0.57;;;;;;;;;;5091235;28;20470;-57
2023/10/09 14:14:48;;;;;;;1.50;0.73;;;;;;;;;;5084223;28;20044;-57
2023/10/09 14:17:28;;;;;;;0.87;0.67;;;;;;;;;;5086990;28;20465;-57
2023/10/09 14:20:00;;;;;;;1.07;0.63;;;;;;;;;;5087092;28;20039;-57
2023/10/09 14:22:27;;;;;;;3.30;1.90;;;;;;;;;;5087502;28;20020;-57
2023/10/09 14:24:59;;;;;;;2.67;2.23;;;;;;;;;;5091798;28;20102;-57
2023/10/09 14:27:29;;;;;;;2.30;1.90;;;;;;;;;;5091773;28;20115;-57
2023/10/09 14:29:58;;;;;;;3.30;2.00;;;;;;;;;;5091767;28;20066;-57
2023/10/09 14:32:28;;;;;;;1.40;0.97;;;;;;;;;;5091361;28;20024;-57
2023/10/09 14:35:01;;;;;;;3.30;2.33;;;;;;;;;;5089929;28;20386;-57
2023/10/09 14:37:31;;;;;;;1.83;1.57;;;;;;;;;;5086780;28;20474;-57
2023/10/09 14:39:58;;;;;;;3.13;2.27;;;;;;;;;;5087041;28;20149;-57
2023/10/09 14:42:27;;;;;;;3.00;1.70;;;;;;;;;;5090383;28;20067;-57
2023/10/09 14:44:55;;;;;;;5.30;2.87;;;;;;;;;;5091823;28;20024;-57
2023/10/09 14:47:21;;;;;;;1.67;1.47;;;;;;;;;;5094872;28;20165;-57
2023/10/09 14:49:49;;;;;;;2.10;1.63;;;;;;;;;;5095156;28;20024;-57
2023/10/09 14:52:20;;;;;;;3.13;1.87;;;;;;;;;;5095207;28;20472;-57
2023/10/09 14:54:47;;;;;;;2.27;1.70;;;;;;;;;;5095036;28;20028;-57
2023/10/09 14:57:13;;;;;;;3.20;2.00;;;;;;;;;;5093535;28;20028;-57
2023/10/09 14:59:42;;;;;;;3.20;2.07;;;;;;;;;;5089599;28;20107;-57
2023/10/09 15:02:09;;;;;;;2.37;1.83;;;;;;;;;;5089881;28;20036;-57
2023/10/09 15:04:37;;;;;;;3.27;2.07;;;;;;;;;;5090111;28;20027;-58
2023/10/09 15:07:06;;;;;;;3.53;1.10;;;;;;;;;;5090763;28;20073;-57
2023/10/09 15:09:36;;;;;;;2.90;1.20;;;;;;;;;;5094329;28;20085;-57
2023/10/09 15:12:03;;;;;;;1.03;0.83;;;;;;;;;;5095199;28;20035;-57
2023/10/09 15:14:31;;;;;;;1.03;0.77;;;;;;;;;;5094634;28;20477;-57
2023/10/09 15:16:58;;;;;;;0.50;0.50;;;;;;;;;;5094676;28;20024;-57
2023/10/09 15:19:29;;;;;;;4.23;0.80;;;;;;;;;;5093384;28;20024;-57
2023/10/09 15:21:58;;;;;;;0.73;0.53;;;;;;;;;;5089273;28;20050;-57
2023/10/09 15:24:27;;;;;;;2.83;0.53;;;;;;;;;;5089552;28;20036;-57
2023/10/09 15:26:57;;;;;;;1.47;0.67;;;;;;;;;;5089542;28;20438;-57
2023/10/09 15:29:33;;;;;;;1.53;0.70;;;;;;;;;;5090559;28;20081;-57
2023/10/09 15:32:04;;;;;;;1.50;0.73;;;;;;;;;;5093971;28;20039;-57
2023/10/09 15:34:35;;;;;;;1.47;0.70;;;;;;;;;;5094394;28;20127;-56
2023/10/09 15:37:03;;;;;;;6.23;1.03;;;;;;;;;;5093980;28;20102;-57
2023/10/09 15:39:31;;;;;;;0.97;0.67;;;;;;;;;;5094117;28;20474;-57
2023/10/09 15:41:58;;;;;;;0.63;0.53;;;;;;;;;;5092016;28;20040;-57
2023/10/09 15:44:25;;;;;;;1.50;0.80;;;;;;;;;;5089299;28;20028;-57
2023/10/09 15:46:59;;;;;;;1.40;1.00;;;;;;;;;;5089199;28;20486;-57
2023/10/09 15:49:33;;;;;;;0.60;0.57;;;;;;;;;;5089343;28;20024;-59
2023/10/09 15:52:02;;;;;;;1.88;1.02;;;;;;;;;;5090454;28;20028;-57
2023/10/09 15:54:29;;;;;;;1.90;0.80;;;;;;;;;;5093694;28;20052;-58
2023/10/09 15:56:56;;;;;;;2.33;1.30;;;;;;;;;;5093855;28;20020;-57
2023/10/09 15:59:26;;;;;;;1.53;0.87;;;;;;;;;;5093896;28;20470;-57
2023/10/09 16:01:53;;;;;;;0.83;0.60;;;;;;;;;;5093304;28;20032;-57
2023/10/09 16:04:20;;;;;;;5.53;1.77;;;;;;;;;;5091724;28;20036;-57
2023/10/09 16:06:47;;;;;;;3.73;1.20;;;;;;;;;;5088496;28;20024;-57
2023/10/09 16:09:21;;;;;;;1.60;1.07;;;;;;;;;;5088799;28;20020;-57
2023/10/09 16:11:48;;;;;;;1.77;1.25;;;;;;;;;;5088207;28;20028;-58
2023/10/09 16:14:15;;;;;;;1.00;0.80;;;;;;;;;;5089884;28;20024;-57
2023/10/09 16:16:42;;;;;;;2.67;1.00;;;;;;;;;;5093235;28;20545;-58
2023/10/09 16:19:09;;;;;;;0.30;0.30;;;;;;;;;;5093521;28;20035;-57
2023/10/09 16:21:36;;;;;;;3.93;1.13;;;;;;;;;;5093385;28;20012;-57
2023/10/09 16:24:06;;;;;;;1.17;0.73;;;;;;;;;;5093351;28;20470;-57
2023/10/09 16:26:45;;;;;;;0.93;0.60;;;;;;;;;;5091379;28;20067;-58
2023/10/09 16:29:12;;;;;;;1.30;1.10;;;;;;;;;;5088568;28;20107;-57
2023/10/09 16:31:39;;;;;;;1.13;0.70;;;;;;;;;;5087845;28;20023;-58
2023/10/09 16:34:07;;;;;;;1.80;1.03;;;;;;;;;;5088364;28;20032;-58
2023/10/09 16:36:35;;;;;;;1.20;0.77;;;;;;;;;;5089248;28;20467;-57
2023/10/09 16:39:01;;;;;;;1.30;0.63;;;;;;;;;;5093186;28;20112;-59
2023/10/09 16:41:29;;;;;;;1.50;1.17;;;;;;;;;;5092783;28;20047;-58
2023/10/09 16:43:59;;;;;;;0.93;0.70;;;;;;;;;;5093236;28;20027;-58
2023/10/09 16:46:26;;;;;;;0.80;0.60;;;;;;;;;;5092998;28;20466;-57
2023/10/09 16:48:55;;;;;;;3.90;1.50;;;;;;;;;;5091121;28;20020;-58
2023/10/09 16:51:22;;;;;;;1.47;0.97;;;;;;;;;;5087947;28;20032;-58
2023/10/09 16:53:52;;;;;;;4.07;1.63;;;;;;;;;;5087275;28;20066;-58
2023/10/09 16:56:22;;;;;;;2.03;1.17;;;;;;;;;;5087889;28;20035;-58
2023/10/09 16:58:54;;;;;;;1.67;1.20;;;;;;;;;;5088906;28;20054;-57
2023/10/09 17:01:21;;;;;;;1.67;1.17;;;;;;;;;;5092368;28;20024;-57
2023/10/09 17:03:57;;;;;;;1.27;0.93;;;;;;;;;;5091964;28;20030;-58
2023/10/09 17:06:28;;;;;;;4.90;1.73;;;;;;;;;;5092300;28;20059;-57
2023/10/09 17:08:56;;;;;;;2.22;1.02;;;;;;;;;;5092744;28;20088;-57
2023/10/09 17:11:24;;;;;;;1.27;1.00;;;;;;;;;;5090536;28;20024;-58
2023/10/09 17:13:54;;;;;;;3.55;1.38;;;;;;;;;;5087581;28;20402;-57
2023/10/09 17:16:23;;;;;;;1.60;1.33;;;;;;;;;;5087501;28;20036;-58
2023/10/09 17:18:51;;;;;;;1.45;1.00;;;;;;;;;;5087657;28;20473;-58
2023/10/09 17:21:22;;;;;;;3.35;1.67;;;;;;;;;;5088462;28;20020;-58
2023/10/09 17:23:50;;;;;;;5.18;2.00;;;;;;;;;;5092083;28;20032;-58
2023/10/09 17:26:22;;;;;;;1.60;1.25;;;;;;;;;;5092403;28;20020;-58
2023/10/09 17:28:51;;;;;;;2.55;1.60;;;;;;;;;;5092830;28;20366;-57
2023/10/09 17:31:20;;;;;;;12.63;1.55;;;;;;;;;;5092270;28;20028;-57
2023/10/09 17:33:47;;;;;;;2.95;1.27;;;;;;;;;;5090326;28;20066;-58
2023/10/09 17:36:16;;;;;;;3.08;1.90;;;;;;;;;;5086952;28;20074;-57
2023/10/09 17:38:47;;;;;;;2.35;1.67;;;;;;;;;;5087282;28;20060;-58
2023/10/09 17:41:14;;;;;;;2.72;1.42;;;;;;;;;;5087130;28;20115;-59
2023/10/09 17:43:41;;;;;;;1.73;1.27;;;;;;;;;;5088652;28;20020;-58
2023/10/09 17:46:11;;;;;;;2.58;1.55;;;;;;;;;;5092293;28;20027;-58
2023/10/09 17:48:38;;;;;;;2.42;1.45;;;;;;;;;;5091996;28;20040;-57
2023/10/09 17:51:08;;;;;;;2.50;1.65;;;;;;;;;;5091642;28;20024;-58
2023/10/09 17:53:38;;;;;;;2.13;1.40;;;;;;;;;;5092132;28;20028;-58
2023/10/09 17:56:05;;;;;;;4.60;1.88;;;;;;;;;;5090595;28;20043;-59